Time;durP1;ratioP1;P1;durP2;ratioP2;P2;SDS_P1;SDS_P2;PMS_P1;PMS_P2;Temp;Humidity;BMP_temperature;BMP_pressure;BME280_temperature;BME280_humidity;BME280_pressure;Samples;Min_cycle;Max_cycle;Signal;HPM_P1;HPM_P2
2022/04/09 01:38:15;;;;;;;10.43;1.75;;;;;;;11.77;100.00;92893.06;5017584;28;20085;-90
2022/04/09 01:40:41;;;;;;;7.95;2.00;;;;;;;11.64;100.00;92902.66;5001902;28;20034;-89
2022/04/09 01:43:07;;;;;;;7.57;2.58;;;;;;;11.55;100.00;92909.75;4984465;28;20403;-90
2022/04/09 01:45:33;;;;;;;12.00;1.92;;;;;;;11.69;100.00;92910.38;4972188;28;20494;-89
2022/04/09 01:47:59;;;;;;;8.07;1.65;;;;;;;11.80;100.00;92902.94;4993132;28;20028;-88
2022/04/09 01:50:29;;;;;;;8.13;1.73;;;;;;;11.64;100.00;92913.16;5008565;28;20108;-89
2022/04/09 01:52:56;;;;;;;11.77;2.10;;;;;;;11.69;100.00;92888.59;4975893;28;20455;-88
2022/04/09 01:55:28;;;;;;;14.90;2.45;;;;;;;11.79;100.00;92903.28;4975937;28;20025;-91
2022/04/09 01:57:53;;;;;;;13.88;2.10;;;;;;;11.71;100.00;92889.84;4989220;28;20053;-89
2022/04/09 02:00:19;;;;;;;11.40;2.03;;;;;;;11.78;100.00;92878.88;4999117;28;20038;-87
2022/04/09 02:02:54;;;;;;;13.60;2.25;;;;;;;11.82;100.00;92868.53;5001881;28;20454;-89
2022/04/09 02:05:24;;;;;;;11.57;1.90;;;;;;;11.83;100.00;92872.69;4998529;28;20301;-88
2022/04/09 02:07:51;;;;;;;13.40;2.20;;;;;;;11.66;100.00;92876.91;5018453;28;20039;-87
2022/04/09 02:10:18;;;;;;;10.98;2.60;;;;;;;11.64;100.00;92881.69;5018185;28;20157;-87
2022/04/09 02:12:44;;;;;;;15.25;2.53;;;;;;;11.51;100.00;92887.84;5001942;28;20037;-88
2022/04/09 02:15:22;;;;;;;15.02;2.17;;;;;;;11.54;100.00;92887.22;5018797;28;20026;-87
2022/04/09 02:17:47;;;;;;;12.95;2.63;;;;;;;11.53;100.00;92883.06;5002175;28;20308;-87
2022/04/09 02:20:16;;;;;;;10.40;1.80;;;;;;;11.37;100.00;92888.78;5015950;28;20030;-87
2022/04/09 02:22:43;;;;;;;12.57;2.08;;;;;;;11.26;100.00;92877.03;4995399;28;20044;-87
2022/04/09 02:25:13;;;;;;;15.80;2.65;;;;;;;11.39;100.00;92867.47;5001097;28;20033;-87
2022/04/09 02:27:39;;;;;;;16.35;2.22;;;;;;;11.37;100.00;92870.44;5018307;28;20030;-87
2022/04/09 02:30:06;;;;;;;12.10;2.47;;;;;;;11.39;100.00;92883.22;5018910;28;20030;-87
2022/04/09 02:32:40;;;;;;;15.07;2.55;;;;;;;11.40;100.00;92875.03;5001026;28;20025;-87
2022/04/09 02:35:06;;;;;;;10.35;1.85;;;;;;;11.17;100.00;92869.94;5018158;28;20338;-87
2022/04/09 02:37:32;;;;;;;10.02;2.30;;;;;;;11.19;100.00;92859.16;4983390;28;20061;-87
2022/04/09 02:39:57;;;;;;;14.88;2.35;;;;;;;11.10;100.00;92868.84;5018485;28;20036;-87
2022/04/09 02:42:23;;;;;;;14.70;2.00;;;;;;;11.03;100.00;92870.09;5001930;28;20022;-89
2022/04/09 02:44:48;;;;;;;14.05;2.97;;;;;;;10.84;100.00;92883.44;4985166;28;20040;-89
2022/04/09 02:47:14;;;;;;;14.18;3.15;;;;;;;10.83;100.00;92868.81;4984783;28;20097;-88
2022/04/09 02:49:40;;;;;;;16.10;2.38;;;;;;;11.13;100.00;92873.50;4985130;28;20030;-88
2022/04/09 02:52:07;;;;;;;17.63;3.45;;;;;;;11.18;100.00;92878.59;5001411;28;20021;-89
2022/04/09 02:54:36;;;;;;;13.23;2.13;;;;;;;11.19;100.00;92890.59;5001500;28;20037;-89
2022/04/09 02:57:02;;;;;;;18.73;2.13;;;;;;;11.01;100.00;92868.84;5000728;28;20022;-89
2022/04/09 02:59:27;;;;;;;13.25;3.10;;;;;;;11.18;100.00;92857.59;5018680;28;20423;-90
2022/04/09 03:01:53;;;;;;;9.07;1.90;;;;;;;11.25;100.00;92875.50;5000475;28;20041;-89
2022/04/09 03:04:22;;;;;;;16.25;2.42;;;;;;;11.11;100.00;92868.56;5001320;28;20474;-89
2022/04/09 03:06:47;;;;;;;16.35;2.75;;;;;;;10.99;100.00;92865.75;5001199;28;20033;-90
2022/04/09 03:09:13;;;;;;;10.05;2.55;;;;;;;10.74;100.00;92873.25;4999997;28;20038;-89
2022/04/09 03:11:38;;;;;;;13.57;2.70;;;;;;;10.67;100.00;92872.94;5017694;28;20116;-90
2022/04/09 03:14:05;;;;;;;17.30;2.92;;;;;;;10.70;100.00;92880.97;5000727;28;20037;-89
2022/04/09 03:16:32;;;;;;;13.00;2.60;;;;;;;10.76;100.00;92865.88;5018280;28;20045;-89
2022/04/09 03:19:00;;;;;;;12.52;2.55;;;;;;;10.59;100.00;92856.88;5017954;28;20037;-89
2022/04/09 03:21:26;;;;;;;15.55;2.30;;;;;;;10.49;100.00;92849.31;5000403;28;20439;-89
2022/04/09 03:23:51;;;;;;;12.00;2.10;;;;;;;10.48;100.00;92845.16;5000547;28;20088;-90
2022/04/09 03:26:23;;;;;;;12.05;3.20;;;;;;;10.52;100.00;92830.38;5017556;28;20034;-89
2022/04/09 03:28:48;;;;;;;13.63;2.83;;;;;;;10.42;100.00;92820.19;5000254;28;20033;-89
2022/04/09 03:31:14;;;;;;;16.88;2.25;;;;;;;10.40;100.00;92830.94;5000392;28;20057;-90
2022/04/09 03:33:40;;;;;;;8.70;2.40;;;;;;;10.03;100.00;92827.72;5000152;28;20034;-89
2022/04/09 03:36:06;;;;;;;19.45;2.92;;;;;;;10.59;100.00;92824.69;5016817;28;20050;-90
2022/04/09 03:38:32;;;;;;;12.52;2.38;;;;;;;11.00;100.00;92823.53;5016927;28;20113;-87
2022/04/09 03:40:57;;;;;;;12.52;2.30;;;;;;;11.07;100.00;92828.31;5014802;28;20120;-87
2022/04/09 03:43:24;;;;;;;12.85;2.45;;;;;;;10.97;100.00;92826.75;5001926;28;20030;-87
2022/04/09 03:45:49;;;;;;;17.40;2.80;;;;;;;11.16;100.00;92828.31;5017181;28;20347;-87
2022/04/09 03:48:14;;;;;;;13.93;2.22;;;;;;;11.03;100.00;92825.53;4982580;28;20049;-87
2022/04/09 03:50:40;;;;;;;17.92;2.78;;;;;;;10.92;100.00;92821.66;4999760;28;20030;-87
2022/04/09 03:53:05;;;;;;;10.00;2.17;;;;;;;10.85;100.00;92834.47;5000186;28;20045;-87
2022/04/09 03:55:31;;;;;;;8.98;1.73;;;;;;;10.78;100.00;92826.28;5017517;28;20034;-87
2022/04/09 03:57:57;;;;;;;10.40;1.98;;;;;;;10.69;100.00;92839.34;4999379;28;20030;-87
2022/04/09 04:00:22;;;;;;;12.20;2.53;;;;;;;10.55;100.00;92831.63;4999777;28;20030;-87
2022/04/09 04:02:48;;;;;;;11.93;1.95;;;;;;;10.58;100.00;92820.53;4999129;28;20358;-86
2022/04/09 04:05:13;;;;;;;11.43;2.17;;;;;;;10.45;100.00;92811.72;4999616;28;20038;-87
2022/04/09 04:07:44;;;;;;;17.90;3.17;;;;;;;10.46;100.00;92821.09;5017213;28;20033;-87
2022/04/09 04:10:12;;;;;;;20.55;2.95;;;;;;;10.44;100.00;92804.94;4999745;28;20347;-87
2022/04/09 04:12:37;;;;;;;22.23;2.85;;;;;;;10.41;100.00;92811.56;4999662;28;20061;-87
2022/04/09 04:15:04;;;;;;;14.20;2.60;;;;;;;11.15;100.00;92806.56;4963920;28;20073;-87
2022/04/09 04:17:40;;;;;;;13.13;2.53;;;;;;;11.22;100.00;92795.63;4980111;28;20034;-87
2022/04/09 04:20:06;;;;;;;11.27;2.00;;;;;;;10.94;100.00;92785.44;4979858;28;20034;-87
2022/04/09 04:22:31;;;;;;;14.00;2.53;;;;;;;10.93;100.00;92780.53;4979827;28;20458;-87
2022/04/09 04:24:56;;;;;;;12.57;2.42;;;;;;;10.99;100.00;92780.06;4997441;28;20034;-87
2022/04/09 04:27:22;;;;;;;8.32;1.85;;;;;;;10.88;100.00;92789.31;4979695;28;20061;-87
2022/04/09 04:29:47;;;;;;;13.27;2.92;;;;;;;10.73;100.00;92793.13;4997434;28;20030;-87
2022/04/09 04:32:13;;;;;;;16.65;1.90;;;;;;;10.84;100.00;92791.00;4996759;28;20050;-87
2022/04/09 04:34:38;;;;;;;18.83;2.00;;;;;;;10.72;100.00;92818.56;4979942;28;20369;-87
2022/04/09 04:37:04;;;;;;;8.40;2.00;;;;;;;10.73;100.00;92816.69;4997124;28;20042;-87
2022/04/09 04:39:29;;;;;;;22.88;3.47;;;;;;;10.49;100.00;92812.66;4980265;28;20030;-87
2022/04/09 04:41:55;;;;;;;15.48;2.60;;;;;;;10.37;100.00;92821.06;4996337;28;20518;-87
2022/04/09 04:44:20;;;;;;;15.27;2.30;;;;;;;10.31;100.00;92817.81;4997281;28;20030;-87
2022/04/09 04:46:46;;;;;;;14.27;2.42;;;;;;;10.36;100.00;92816.13;4996965;28;20133;-87
2022/04/09 04:49:12;;;;;;;15.88;2.50;;;;;;;10.21;100.00;92823.31;4979859;28;20035;-87
2022/04/09 04:51:37;;;;;;;14.43;2.08;;;;;;;10.43;100.00;92825.13;4980287;28;20125;-87
2022/04/09 04:54:03;;;;;;;15.02;2.60;;;;;;;10.41;100.00;92842.19;4979910;28;20045;-87
2022/04/09 04:56:32;;;;;;;11.23;2.45;;;;;;;10.41;100.00;92836.97;4979761;28;20045;-87
2022/04/09 04:58:57;;;;;;;25.95;2.55;;;;;;;10.44;100.00;92847.59;4980077;28;20092;-87
2022/04/09 05:01:23;;;;;;;11.95;2.28;;;;;;;10.41;100.00;92855.28;5000755;28;20037;-87
2022/04/09 05:03:50;;;;;;;14.35;2.55;;;;;;;10.33;100.00;92848.91;4967562;28;20038;-87
2022/04/09 05:06:15;;;;;;;17.30;3.65;;;;;;;10.43;100.00;92856.53;4967538;28;20034;-87
2022/04/09 05:08:41;;;;;;;13.00;2.30;;;;;;;10.53;100.00;92850.25;4967973;28;20046;-87
2022/04/09 05:11:07;;;;;;;11.18;2.40;;;;;;;10.35;100.00;92853.88;5000898;28;20034;-87
2022/04/09 05:13:32;;;;;;;15.35;2.55;;;;;;;10.49;100.00;92870.28;4983309;28;20478;-86
2022/04/09 05:15:58;;;;;;;13.25;2.67;;;;;;;10.51;100.00;92865.50;4966821;28;20417;-87
2022/04/09 05:18:24;;;;;;;10.82;2.20;;;;;;;10.46;100.00;92855.94;4983646;28;20063;-87
2022/04/09 05:20:50;;;;;;;14.70;2.42;;;;;;;10.56;100.00;92849.63;5000728;28;20037;-87
2022/04/09 05:23:16;;;;;;;16.05;2.40;;;;;;;10.57;100.00;92840.72;4983190;28;20057;-87
2022/04/09 05:25:41;;;;;;;22.20;2.97;;;;;;;10.56;100.00;92839.16;4983135;28;20046;-87
2022/04/09 05:28:10;;;;;;;18.80;2.45;;;;;;;10.46;100.00;92837.59;4983430;28;20113;-87
2022/04/09 05:30:36;;;;;;;17.67;2.67;;;;;;;10.51;100.00;92836.69;4983476;28;20355;-87
2022/04/09 05:33:03;;;;;;;15.43;3.33;;;;;;;10.36;100.00;92834.47;4983212;28;20034;-87
2022/04/09 05:35:29;;;;;;;22.83;3.28;;;;;;;10.45;100.00;92835.28;4989880;28;20046;-87
2022/04/09 05:37:55;;;;;;;14.02;3.42;;;;;;;10.29;100.00;92838.28;4995412;28;20132;-88
2022/04/09 05:40:22;;;;;;;17.40;2.63;;;;;;;10.60;100.00;92815.75;4983258;28;20177;-87
2022/04/09 05:42:48;;;;;;;18.33;2.50;;;;;;;10.61;100.00;92846.13;4983111;28;20029;-88
2022/04/09 05:45:14;;;;;;;14.35;3.10;;;;;;;10.51;100.00;92862.09;4982870;28;20049;-88
2022/04/09 05:47:44;;;;;;;13.40;2.50;;;;;;;10.57;100.00;92861.66;4982633;28;20092;-87
2022/04/09 05:50:11;;;;;;;14.60;2.38;;;;;;;10.57;100.00;92866.13;4982678;28;20120;-93
2022/04/09 05:52:37;;;;;;;16.00;3.25;;;;;;;10.64;100.00;92878.78;4966964;28;20066;-87
2022/04/09 05:55:04;;;;;;;20.98;3.00;;;;;;;10.66;100.00;92884.50;5000175;28;20073;-87
2022/04/09 05:57:30;;;;;;;21.50;3.50;;;;;;;10.78;100.00;92879.44;4982453;28;20038;-87
2022/04/09 05:59:58;;;;;;;18.40;2.83;;;;;;;10.76;100.00;92878.97;4966511;28;20038;-87
2022/04/09 06:02:27;;;;;;;16.15;2.58;;;;;;;10.87;100.00;92848.78;4999533;28;20038;-87
2022/04/09 06:04:53;;;;;;;13.20;2.88;;;;;;;10.96;100.00;92856.66;4999840;28;20037;-87
2022/04/09 06:07:19;;;;;;;23.45;2.38;;;;;;;10.98;100.00;92854.53;4982264;28;20466;-88
2022/04/09 06:09:44;;;;;;;20.05;3.55;;;;;;;11.02;100.00;92859.91;4982673;28;20042;-88
2022/04/09 06:12:11;;;;;;;17.73;3.22;;;;;;;11.10;100.00;92861.78;4981090;28;20038;-87
2022/04/09 06:14:44;;;;;;;15.95;2.85;;;;;;;11.22;100.00;92868.25;4982370;28;20033;-87
2022/04/09 06:17:10;;;;;;;20.90;2.85;;;;;;;11.28;100.00;92872.25;4982221;28;20034;-87
2022/04/09 06:19:37;;;;;;;14.48;2.63;;;;;;;11.22;100.00;92868.25;4982405;28;20033;-87
2022/04/09 06:22:03;;;;;;;23.75;2.72;;;;;;;11.22;100.00;92869.00;4982402;28;20030;-87
2022/04/09 06:24:29;;;;;;;19.38;2.33;;;;;;;11.15;100.00;92855.59;4982048;28;20424;-87
2022/04/09 06:26:55;;;;;;;21.33;2.60;;;;;;;11.25;98.10;92862.41;4982075;28;20250;-86
2022/04/09 06:29:20;;;;;;;33.38;3.33;;;;;;;11.37;94.92;92861.78;4981690;28;20042;-87
2022/04/09 06:31:51;;;;;;;11.68;2.22;;;;;;;11.49;91.56;92845.44;4999450;28;20431;-89
2022/04/09 06:34:19;;;;;;;13.05;2.53;;;;;;;11.41;91.15;92844.38;4982248;28;20037;-88
2022/04/09 06:36:47;;;;;;;13.82;1.98;;;;;;;11.42;89.12;92872.13;4965746;28;20042;-89
2022/04/09 06:39:13;;;;;;;15.35;2.78;;;;;;;11.38;89.58;92871.97;4965870;28;20034;-88
2022/04/09 06:41:38;;;;;;;25.23;2.95;;;;;;;11.43;85.19;92871.81;4966143;28;20041;-90
2022/04/09 06:44:05;;;;;;;11.70;2.22;;;;;;;11.51;80.21;92848.53;4965690;28;20034;-89
2022/04/09 06:46:31;;;;;;;8.32;2.28;;;;;;;11.52;78.82;92869.16;4981960;28;20038;-89
2022/04/09 06:48:59;;;;;;;16.33;2.72;;;;;;;11.63;78.03;92867.03;4965467;28;20162;-89
2022/04/09 06:51:24;;;;;;;17.45;2.63;;;;;;;11.66;76.91;92845.41;4988775;28;20043;-89
2022/04/09 06:53:53;;;;;;;11.10;1.92;;;;;;;11.77;73.62;92856.34;5001313;28;20030;-89
2022/04/09 06:56:22;;;;;;;13.35;2.03;;;;;;;11.83;74.77;92876.09;4985383;28;20029;-89
2022/04/09 06:58:51;;;;;;;14.00;2.30;;;;;;;11.86;75.52;92864.97;5001907;28;20088;-89
2022/04/09 07:01:19;;;;;;;13.65;2.20;;;;;;;11.96;74.17;92853.38;4985109;28;20029;-88
2022/04/09 07:03:44;;;;;;;15.23;2.40;;;;;;;11.99;74.05;92852.75;5000907;28;20026;-90
2022/04/09 07:06:10;;;;;;;14.68;2.65;;;;;;;11.97;73.28;92844.41;4984101;28;20142;-89
2022/04/09 07:08:36;;;;;;;7.18;2.10;;;;;;;12.02;72.15;92844.28;4984246;28;20044;-89
2022/04/09 07:11:01;;;;;;;13.50;2.28;;;;;;;11.93;71.14;92838.25;4984556;28;20051;-89
2022/04/09 07:13:28;;;;;;;14.30;2.03;;;;;;;12.02;68.07;92828.53;5000981;28;20026;-89
2022/04/09 07:15:55;;;;;;;15.10;2.47;;;;;;;11.98;69.55;92839.97;5000877;28;20422;-89
2022/04/09 07:18:22;;;;;;;8.95;1.85;;;;;;;12.04;67.09;92830.84;5000888;28;20373;-89
2022/04/09 07:20:48;;;;;;;18.27;2.95;;;;;;;12.10;67.07;92828.81;4984763;28;20397;-90
2022/04/09 07:23:13;;;;;;;10.57;2.38;;;;;;;11.96;67.97;92814.00;4992988;28;20118;-89
2022/04/09 07:25:39;;;;;;;13.63;2.30;;;;;;;12.01;66.82;92798.13;4984108;28;20401;-89
2022/04/09 07:28:04;;;;;;;8.20;2.25;;;;;;;12.12;67.54;92822.19;4984253;28;20040;-89
2022/04/09 07:30:30;;;;;;;11.32;2.45;;;;;;;12.21;67.87;92835.28;4984448;28;20029;-89
2022/04/09 07:32:57;;;;;;;10.70;2.25;;;;;;;12.23;68.37;92817.34;5008901;28;20490;-89
2022/04/09 07:35:22;;;;;;;14.85;2.67;;;;;;;12.14;67.05;92827.09;4964612;28;20109;-89
2022/04/09 07:37:54;;;;;;;16.70;2.40;;;;;;;12.23;66.58;92840.97;4964931;28;20550;-86
2022/04/09 07:40:20;;;;;;;13.20;2.63;;;;;;;12.17;65.22;92836.97;4965565;28;20030;-87
2022/04/09 07:42:46;;;;;;;13.48;2.13;;;;;;;12.27;61.96;92833.25;4980923;28;20026;-87
2022/04/09 07:45:14;;;;;;;12.68;2.70;;;;;;;12.27;61.88;92831.38;4980730;28;20029;-87
2022/04/09 07:47:41;;;;;;;14.85;2.17;;;;;;;12.28;61.39;92837.41;4964668;28;20039;-89
2022/04/09 07:50:10;;;;;;;14.70;1.92;;;;;;;12.40;59.63;92842.00;4964983;28;20443;-89
2022/04/09 07:52:36;;;;;;;13.55;2.15;;;;;;;12.53;59.15;92841.00;4981003;28;20048;-89
2022/04/09 07:55:02;;;;;;;6.78;1.85;;;;;;;12.80;59.76;92835.59;4964992;28;20065;-93
2022/04/09 07:57:28;;;;;;;11.82;1.58;;;;;;;12.96;59.99;92826.06;4964754;28;20054;-91
2022/04/09 07:59:55;;;;;;;7.63;2.00;;;;;;;13.08;60.90;92835.91;4995119;28;20108;-90
2022/04/09 08:02:24;;;;;;;8.95;1.98;;;;;;;13.02;61.55;92831.91;5000093;28;20084;-90
2022/04/09 08:04:50;;;;;;;11.88;2.15;;;;;;;13.32;64.21;92844.25;4984013;28;20414;-90
2022/04/09 08:07:16;;;;;;;17.70;2.28;;;;;;;13.12;63.03;92843.91;5015014;28;20128;-90
2022/04/09 08:09:43;;;;;;;18.98;2.45;;;;;;;13.22;62.92;92834.88;5003081;28;20040;-90
2022/04/09 08:12:11;;;;;;;11.25;2.22;;;;;;;13.14;62.49;92831.97;4987989;28;20087;-90
2022/04/09 08:14:43;;;;;;;21.33;3.30;;;;;;;13.09;63.58;92845.31;4983986;28;20076;-90
2022/04/09 08:17:09;;;;;;;11.50;2.05;;;;;;;13.34;nan;92834.16;4999773;28;20057;-91
2022/04/09 08:19:41;;;;;;;96.85;11.55;;;;;;;13.24;63.63;92840.59;4983601;28;20033;-90
2022/04/09 08:22:08;;;;;;;12.38;1.98;;;;;;;13.38;63.93;92835.84;4983508;28;20030;-91
2022/04/09 08:24:34;;;;;;;10.63;1.90;;;;;;;13.44;61.68;92846.97;4983737;28;20033;-91
2022/04/09 08:26:59;;;;;;;10.95;2.25;;;;;;;13.71;61.97;92855.41;4983309;28;20034;-91
2022/04/09 08:29:25;;;;;;;15.40;2.70;;;;;;;13.82;58.38;92853.13;4983495;28;20030;-92
2022/04/09 08:31:51;;;;;;;13.15;1.83;;;;;;;13.87;55.94;92846.91;4983514;28;20157;-90
2022/04/09 08:34:18;;;;;;;17.75;2.38;;;;;;;13.67;55.32;92857.91;4982724;28;20128;-90
2022/04/09 08:36:48;;;;;;;16.67;2.42;;;;;;;13.50;60.46;92860.69;5002961;28;20083;-91
2022/04/09 08:39:13;;;;;;;9.75;2.42;;;;;;;13.58;60.39;92862.47;4987751;28;20079;-91
2022/04/09 08:41:42;;;;;;;11.20;2.20;;;;;;;13.87;57.12;92873.22;5003505;28;20045;-89
2022/04/09 08:44:08;;;;;;;14.70;2.30;;;;;;;13.68;57.92;92882.34;4988011;28;20112;-90
2022/04/09 08:46:37;;;;;;;9.88;2.08;;;;;;;13.58;58.21;92891.41;5003147;28;20041;-89
2022/04/09 08:49:06;;;;;;;9.93;1.92;;;;;;;13.90;58.06;92889.13;5003541;28;20026;-90
2022/04/09 08:51:33;;;;;;;18.40;2.70;;;;;;;13.92;58.89;92886.97;5002709;28;20033;-90
2022/04/09 08:54:02;;;;;;;14.57;3.30;;;;;;;13.69;60.88;92883.88;4987115;28;20029;-91
2022/04/09 08:56:33;;;;;;;12.77;2.25;;;;;;;13.83;58.81;92884.38;4986938;28;20399;-94
2022/04/09 08:59:00;;;;;;;13.55;3.63;;;;;;;13.95;62.12;92890.78;5003656;28;20034;-91
2022/04/09 09:01:26;;;;;;;11.98;2.67;;;;;;;13.43;57.78;92896.16;5002911;28;20312;-89
2022/04/09 09:03:52;;;;;;;13.23;2.67;;;;;;;13.51;60.40;92899.06;4987036;28;20037;-91
2022/04/09 09:06:29;;;;;;;16.05;2.83;;;;;;;13.60;60.08;92904.25;5002778;28;20064;-91
2022/04/09 09:08:59;;;;;;;12.27;2.20;;;;;;;13.44;59.26;92891.69;4983703;28;20026;-91
2022/04/09 09:11:26;;;;;;;12.88;2.75;;;;;;;13.88;60.12;92906.34;4967970;28;20026;-90
2022/04/09 09:13:56;;;;;;;21.25;2.75;;;;;;;14.25;61.81;92895.91;4968426;28;20045;-93
2022/04/09 09:16:27;;;;;;;19.95;3.20;;;;;;;14.01;59.22;92894.78;4967446;28;20030;-93
2022/04/09 09:18:54;;;;;;;17.45;2.65;;;;;;;14.13;57.98;92901.94;4983346;28;20048;-92
2022/04/09 09:21:25;;;;;;;12.80;2.53;;;;;;;14.61;59.93;92891.03;4976943;28;20052;-92
2022/04/09 09:23:52;;;;;;;19.35;2.67;;;;;;;14.14;58.98;92903.47;4967956;28;20022;-92
2022/04/09 09:26:23;;;;;;;15.95;3.30;;;;;;;14.47;59.98;92894.75;4967350;28;20048;-91
2022/04/09 09:28:55;;;;;;;20.13;2.80;;;;;;;14.24;60.08;92903.06;5000249;28;20030;-92
2022/04/09 09:31:42;;;;;;;19.63;3.00;;;;;;;14.30;63.55;92882.56;4966868;28;20030;-92
2022/04/09 09:34:13;;;;;;;20.20;3.15;;;;;;;14.09;58.90;92866.81;4966617;28;20033;-93
2022/04/09 09:36:43;;;;;;;24.77;2.75;;;;;;;14.35;62.74;92873.66;4966909;28;20348;-93
2022/04/09 09:39:10;;;;;;;12.73;2.75;;;;;;;14.50;57.86;92878.28;4967822;28;20067;-93
2022/04/09 09:41:55;;;;;;;27.50;2.85;;;;;;;14.23;60.22;92877.81;4967009;28;20029;-92
2022/04/09 09:44:23;;;;;;;14.57;2.88;;;;;;;14.46;60.45;92889.81;4967806;28;20034;-93
2022/04/09 09:46:53;;;;;;;23.38;2.83;;;;;;;14.17;60.32;92876.47;4999034;28;20038;-92
2022/04/09 09:49:22;;;;;;;24.77;3.65;;;;;;;14.20;60.00;92878.47;4975060;28;20064;-91
2022/04/09 09:52:09;;;;;;;15.07;2.13;;;;;;;14.78;61.81;92880.31;5002425;28;20061;-92
2022/04/09 09:54:58;;;;;;;21.50;3.33;;;;;;;14.26;60.25;92873.75;4986242;28;20026;-91
2022/04/09 09:57:26;;;;;;;17.00;2.70;;;;;;;14.21;61.55;92893.19;5002543;28;20339;-92
2022/04/09 09:59:56;;;;;;;15.68;2.88;;;;;;;14.12;58.13;92895.13;5002339;28;20032;-91
2022/04/09 10:02:23;;;;;;;18.98;3.45;;;;;;;14.27;62.80;92883.97;5002119;28;20022;-93
2022/04/09 10:04:50;;;;;;;14.70;2.72;;;;;;;14.04;59.70;92893.34;4985480;28;20037;-93
2022/04/09 10:07:17;;;;;;;16.23;2.50;;;;;;;14.10;60.98;92877.00;4987796;28;20025;-90
2022/04/09 10:09:44;;;;;;;21.40;3.08;;;;;;;14.26;60.23;92885.06;4994639;28;20085;-92
2022/04/09 10:12:23;;;;;;;16.60;2.80;;;;;;;14.54;58.82;92884.44;5000915;28;20049;-89
2022/04/09 10:15:07;;;;;;;16.25;2.60;;;;;;;14.31;59.20;92889.34;4982284;28;20432;-91
2022/04/09 10:17:34;;;;;;;18.30;2.95;;;;;;;14.53;59.02;92888.19;4996850;28;20079;-90
2022/04/09 10:20:02;;;;;;;11.55;2.50;;;;;;;14.91;60.20;92902.16;5001421;28;20418;-91
2022/04/09 10:22:39;;;;;;;11.07;2.38;;;;;;;14.92;57.83;92890.53;4999164;28;20054;-91
2022/04/09 10:25:06;;;;;;;14.30;3.22;;;;;;;15.31;60.25;92897.31;5009274;28;20025;-92
2022/04/09 10:27:49;;;;;;;22.98;3.83;;;;;;;14.41;63.11;92906.59;5001250;28;20034;-91
2022/04/09 10:30:28;;;;;;;11.63;2.72;;;;;;;14.60;63.35;92897.41;5018610;28;20072;-91
2022/04/09 10:32:55;;;;;;;18.60;3.13;;;;;;;14.63;62.48;92892.25;5018662;28;20029;-90
2022/04/09 10:35:26;;;;;;;21.85;3.03;;;;;;;14.48;63.75;92888.38;5001087;28;20045;-90
2022/04/09 10:38:07;;;;;;;25.13;3.50;;;;;;;14.99;64.42;92884.69;5018454;28;20068;-91
2022/04/09 10:40:42;;;;;;;20.27;3.45;;;;;;;14.52;61.50;92902.44;5018539;28;20081;-91
2022/04/09 10:43:28;;;;;;;26.02;3.58;;;;;;;14.40;65.04;92905.06;5018329;28;20081;-91
2022/04/09 10:46:00;;;;;;;15.32;3.30;;;;;;;14.30;64.94;92885.19;5017155;28;20069;-91
2022/04/09 10:48:33;;;;;;;15.85;2.83;;;;;;;14.03;64.32;92897.84;5001452;28;20026;-90
2022/04/09 10:51:07;;;;;;;18.80;3.35;;;;;;;14.49;66.22;92895.22;5001011;28;20550;-90
2022/04/09 10:53:37;;;;;;;14.15;2.58;;;;;;;14.75;63.43;92909.19;5018408;28;20378;-91
2022/04/09 10:56:32;;;;;;;16.88;2.53;;;;;;;14.87;59.52;92914.47;5000969;28;20453;-93
2022/04/09 10:59:08;;;;;;;18.90;3.22;;;;;;;14.79;62.30;92920.63;5017846;28;20041;-91
2022/04/09 11:01:46;;;;;;;21.10;2.53;;;;;;;14.65;64.26;92911.13;5000684;28;20156;-91
2022/04/09 11:04:36;;;;;;;17.48;2.95;;;;;;;13.88;66.42;92904.47;5017947;28;20438;-90
2022/04/09 11:07:16;;;;;;;9.45;2.05;;;;;;;14.33;69.84;92907.44;5018065;28;20080;-90
2022/04/09 11:09:58;;;;;;;21.75;2.53;;;;;;;14.17;67.49;92915.22;5017930;28;20022;-91
2022/04/09 11:12:38;;;;;;;12.48;2.30;;;;;;;14.20;66.96;92917.19;5018121;28;20026;-91
2022/04/09 11:15:16;;;;;;;10.43;1.95;;;;;;;13.98;66.22;92921.72;5018029;28;20160;-90
2022/04/09 11:17:51;;;;;;;14.25;2.03;;;;;;;13.84;70.30;92922.81;5000286;28;20026;-90
2022/04/09 11:20:18;;;;;;;10.90;2.05;;;;;;;13.73;71.47;92939.28;5018131;28;20040;-90
2022/04/09 11:22:56;;;;;;;8.55;1.80;;;;;;;13.98;71.50;92943.56;5017663;28;20029;-89
2022/04/09 11:25:26;;;;;;;11.27;2.33;;;;;;;14.40;66.79;92926.91;5017492;28;20387;-91
2022/04/09 11:27:55;;;;;;;11.25;2.05;;;;;;;13.95;67.79;92933.69;4997609;28;20033;-90
2022/04/09 11:30:45;;;;;;;10.75;2.00;;;;;;;13.63;68.86;92911.50;5017622;28;20160;-90
2022/04/09 11:33:18;;;;;;;9.00;1.65;;;;;;;13.38;75.08;92937.63;5017004;28;20036;-90
2022/04/09 11:35:44;;;;;;;11.32;1.90;;;;;;;13.70;69.56;92943.31;4992347;28;20447;-92
2022/04/09 11:38:10;;;;;;;14.23;2.28;;;;;;;13.79;69.83;92922.97;5017498;28;20036;-91
2022/04/09 11:40:38;;;;;;;19.05;2.45;;;;;;;13.75;71.29;92935.25;5000253;28;20029;-92
2022/04/09 11:43:04;;;;;;;10.02;2.30;;;;;;;13.74;73.55;92923.19;5000287;28;20029;-91
2022/04/09 11:45:31;;;;;;;7.55;1.75;;;;;;;13.60;73.68;92941.84;4983720;28;20026;-92
2022/04/09 11:48:03;;;;;;;10.70;2.22;;;;;;;13.36;74.85;92942.47;5000026;28;20331;-91
2022/04/09 11:50:33;;;;;;;14.07;2.42;;;;;;;13.64;75.68;92942.00;4983653;28;20036;-91
2022/04/09 11:53:13;;;;;;;13.07;2.35;;;;;;;13.84;74.46;92946.50;5017334;28;20032;-91
2022/04/09 11:55:44;;;;;;;10.63;2.17;;;;;;;14.13;73.81;92939.59;4983582;28;20041;-89
2022/04/09 11:58:11;;;;;;;12.65;2.67;;;;;;;14.66;70.54;92948.81;5017546;28;20025;-91
2022/04/09 12:00:38;;;;;;;9.82;2.90;;;;;;;14.86;72.56;92939.31;5016947;28;20362;-90
2022/04/09 12:03:05;;;;;;;7.25;1.95;;;;;;;15.09;73.62;92952.03;5017191;28;20026;-90
2022/04/09 12:05:46;;;;;;;12.57;2.13;;;;;;;15.15;65.36;92945.47;5000057;28;20040;-90
2022/04/09 12:08:13;;;;;;;20.27;3.13;;;;;;;14.86;71.40;92944.59;5017266;28;20043;-89
2022/04/09 12:11:02;;;;;;;11.27;2.00;;;;;;;15.16;70.10;92947.00;4983400;28;20038;-89
2022/04/09 12:13:37;;;;;;;14.30;2.53;;;;;;;14.69;77.58;92945.53;5017253;28;20029;-91
2022/04/09 12:16:08;;;;;;;13.07;2.25;;;;;;;14.55;69.55;92949.22;4983604;28;20030;-90
2022/04/09 12:18:36;;;;;;;13.23;2.60;;;;;;;14.15;69.85;92957.69;5016832;28;20037;-90
2022/04/09 12:21:31;;;;;;;14.27;2.40;;;;;;;14.16;66.93;92959.22;5016891;28;20030;-92
2022/04/09 12:24:16;;;;;;;12.63;2.10;;;;;;;14.41;72.10;92940.84;5005682;28;20034;-90
2022/04/09 12:26:43;;;;;;;9.55;2.38;;;;;;;14.60;66.79;92929.03;5035954;28;20033;-89
2022/04/09 12:29:17;;;;;;;13.48;2.00;;;;;;;14.65;69.71;92945.41;5019065;28;20430;-89
2022/04/09 12:31:47;;;;;;;13.32;2.60;;;;;;;14.69;72.22;92945.53;5019249;28;20091;-89
2022/04/09 12:35:14;;;;;;;18.30;2.83;;;;;;;14.09;69.04;92949.19;5019996;28;20024;-90
2022/04/09 12:37:50;;;;;;;11.70;2.20;;;;;;;14.44;69.60;92926.28;4956253;28;20443;-89
2022/04/09 12:40:17;;;;;;;14.77;2.03;;;;;;;14.66;70.37;92938.28;5015214;28;20041;-93
2022/04/09 12:42:42;;;;;;;14.95;2.67;;;;;;;14.54;67.37;92934.50;5018253;28;20129;-91
2022/04/09 12:45:28;;;;;;;16.00;3.17;;;;;;;14.71;83.23;92932.78;5019064;28;20112;-89
2022/04/09 12:47:57;;;;;;;18.27;2.13;;;;;;;14.87;71.09;92929.53;5002599;28;20041;-89
2022/04/09 12:50:33;;;;;;;16.20;2.40;;;;;;;14.89;71.58;92935.22;5017538;28;20044;-89
2022/04/09 12:53:04;;;;;;;20.33;2.30;;;;;;;14.94;66.34;92919.19;5018925;28;20136;-90
2022/04/09 12:55:31;;;;;;;18.13;2.30;;;;;;;15.38;72.21;92919.38;5036290;28;20026;-90
2022/04/09 12:57:57;;;;;;;10.32;2.72;;;;;;;15.39;65.07;92914.84;5019040;28;20056;-89
2022/04/09 13:00:24;;;;;;;14.15;2.50;;;;;;;15.09;65.90;92928.31;5018501;28;20021;-90
2022/04/09 13:02:50;;;;;;;14.90;2.65;;;;;;;15.09;68.40;92917.75;5002685;28;20029;-90
2022/04/09 13:05:19;;;;;;;18.27;2.67;;;;;;;15.56;63.88;92929.69;5018701;28;20026;-89
2022/04/09 13:07:45;;;;;;;10.45;2.28;;;;;;;14.89;64.42;92919.41;5018750;28;20037;-89